sensor_id;sensor_type;location;lat;lon;timestamp;P1;durP1;ratioP1;P2;durP2;ratioP2
82646;SDS011;72325;41.910;22.404;2024-03-07T00:01:28;19.90;;;13.13;;
82646;SDS011;72325;41.910;22.404;2024-03-07T00:03:54;22.35;;;13.15;;
82646;SDS011;72325;41.910;22.404;2024-03-07T00:06:20;19.38;;;12.85;;
82646;SDS011;72325;41.910;22.404;2024-03-07T00:08:46;18.90;;;12.35;;
82646;SDS011;72325;41.910;22.404;2024-03-07T00:11:13;17.95;;;10.55;;
82646;SDS011;72325;41.910;22.404;2024-03-07T00:13:39;16.10;;;10.57;;
82646;SDS011;72325;41.910;22.404;2024-03-07T00:16:06;15.18;;;8.63;;
82646;SDS011;72325;41.910;22.404;2024-03-07T00:18:33;15.38;;;9.38;;
82646;SDS011;72325;41.910;22.404;2024-03-07T00:20:59;13.20;;;8.38;;
82646;SDS011;72325;41.910;22.404;2024-03-07T00:23:26;14.13;;;9.07;;
82646;SDS011;72325;41.910;22.404;2024-03-07T00:25:52;15.02;;;9.48;;
82646;SDS011;72325;41.910;22.404;2024-03-07T00:31:21;14.15;;;9.70;;
82646;SDS011;72325;41.910;22.404;2024-03-07T00:33:47;15.75;;;9.90;;
82646;SDS011;72325;41.910;22.404;2024-03-07T00:36:13;14.45;;;8.63;;
82646;SDS011;72325;41.910;22.404;2024-03-07T00:38:40;15.07;;;8.70;;
82646;SDS011;72325;41.910;22.404;2024-03-07T00:41:07;13.93;;;7.53;;
82646;SDS011;72325;41.910;22.404;2024-03-07T00:46:36;14.63;;;8.75;;
82646;SDS011;72325;41.910;22.404;2024-03-07T00:49:02;8.82;;;6.28;;
82646;SDS011;72325;41.910;22.404;2024-03-07T00:51:29;7.15;;;4.88;;
82646;SDS011;72325;41.910;22.404;2024-03-07T00:53:56;7.78;;;5.13;;
82646;SDS011;72325;41.910;22.404;2024-03-07T00:56:23;10.40;;;5.10;;
82646;SDS011;72325;41.910;22.404;2024-03-07T00:58:49;6.68;;;4.85;;
82646;SDS011;72325;41.910;22.404;2024-03-07T01:01:15;9.35;;;4.78;;
82646;SDS011;72325;41.910;22.404;2024-03-07T01:03:42;6.72;;;4.43;;
82646;SDS011;72325;41.910;22.404;2024-03-07T01:06:08;7.03;;;4.75;;
82646;SDS011;72325;41.910;22.404;2024-03-07T01:08:35;9.63;;;5.55;;
82646;SDS011;72325;41.910;22.404;2024-03-07T01:11:02;8.52;;;5.45;;
82646;SDS011;72325;41.910;22.404;2024-03-07T01:16:38;7.80;;;5.32;;
82646;SDS011;72325;41.910;22.404;2024-03-07T01:19:04;9.18;;;5.07;;
82646;SDS011;72325;41.910;22.404;2024-03-07T01:21:34;9.10;;;3.97;;
82646;SDS011;72325;41.910;22.404;2024-03-07T01:24:00;6.25;;;3.90;;
82646;SDS011;72325;41.910;22.404;2024-03-07T01:26:30;7.30;;;4.50;;
82646;SDS011;72325;41.910;22.404;2024-03-07T01:28:58;7.97;;;5.03;;
82646;SDS011;72325;41.910;22.404;2024-03-07T01:31:24;7.97;;;5.65;;
82646;SDS011;72325;41.910;22.404;2024-03-07T01:33:51;9.10;;;5.97;;
82646;SDS011;72325;41.910;22.404;2024-03-07T01:36:18;8.90;;;5.97;;
82646;SDS011;72325;41.910;22.404;2024-03-07T01:38:45;11.18;;;6.13;;
82646;SDS011;72325;41.910;22.404;2024-03-07T01:41:13;8.98;;;6.30;;
82646;SDS011;72325;41.910;22.404;2024-03-07T01:46:45;9.50;;;6.28;;
82646;SDS011;72325;41.910;22.404;2024-03-07T01:49:11;6.97;;;4.63;;
82646;SDS011;72325;41.910;22.404;2024-03-07T01:51:38;8.02;;;5.18;;
82646;SDS011;72325;41.910;22.404;2024-03-07T01:54:05;6.32;;;3.83;;
82646;SDS011;72325;41.910;22.404;2024-03-07T01:56:34;7.00;;;4.35;;
82646;SDS011;72325;41.910;22.404;2024-03-07T01:59:01;6.40;;;4.28;;
82646;SDS011;72325;41.910;22.404;2024-03-07T02:01:27;7.43;;;3.95;;
82646;SDS011;72325;41.910;22.404;2024-03-07T02:03:54;5.63;;;4.13;;
82646;SDS011;72325;41.910;22.404;2024-03-07T02:06:20;5.47;;;3.75;;
82646;SDS011;72325;41.910;22.404;2024-03-07T02:08:47;5.78;;;3.72;;
82646;SDS011;72325;41.910;22.404;2024-03-07T02:11:13;6.30;;;3.50;;
82646;SDS011;72325;41.910;22.404;2024-03-07T02:16:42;5.90;;;4.00;;
82646;SDS011;72325;41.910;22.404;2024-03-07T02:19:11;5.35;;;3.25;;
82646;SDS011;72325;41.910;22.404;2024-03-07T02:21:39;5.25;;;3.15;;
82646;SDS011;72325;41.910;22.404;2024-03-07T02:24:05;4.88;;;2.97;;
82646;SDS011;72325;41.910;22.404;2024-03-07T02:26:31;3.50;;;2.40;;
82646;SDS011;72325;41.910;22.404;2024-03-07T02:32:01;3.33;;;2.13;;
82646;SDS011;72325;41.910;22.404;2024-03-07T02:34:27;4.07;;;2.17;;
82646;SDS011;72325;41.910;22.404;2024-03-07T02:36:54;4.00;;;2.35;;
82646;SDS011;72325;41.910;22.404;2024-03-07T02:39:20;3.85;;;2.50;;
82646;SDS011;72325;41.910;22.404;2024-03-07T02:41:46;3.70;;;2.58;;
82646;SDS011;72325;41.910;22.404;2024-03-07T02:44:15;3.78;;;2.05;;
82646;SDS011;72325;41.910;22.404;2024-03-07T02:46:42;4.97;;;2.70;;
82646;SDS011;72325;41.910;22.404;2024-03-07T02:49:08;4.68;;;2.30;;
82646;SDS011;72325;41.910;22.404;2024-03-07T02:51:35;4.43;;;2.20;;
82646;SDS011;72325;41.910;22.404;2024-03-07T02:54:01;4.78;;;2.40;;
82646;SDS011;72325;41.910;22.404;2024-03-07T02:56:31;4.15;;;2.45;;
82646;SDS011;72325;41.910;22.404;2024-03-07T03:02:00;4.32;;;2.55;;
82646;SDS011;72325;41.910;22.404;2024-03-07T03:04:26;4.25;;;2.38;;
82646;SDS011;72325;41.910;22.404;2024-03-07T03:06:52;4.03;;;2.47;;
82646;SDS011;72325;41.910;22.404;2024-03-07T03:09:19;3.95;;;2.20;;
82646;SDS011;72325;41.910;22.404;2024-03-07T03:11:46;4.60;;;2.65;;
82646;SDS011;72325;41.910;22.404;2024-03-07T03:17:16;5.35;;;2.90;;
82646;SDS011;72325;41.910;22.404;2024-03-07T03:19:42;5.22;;;2.60;;
82646;SDS011;72325;41.910;22.404;2024-03-07T03:22:08;4.18;;;2.72;;
82646;SDS011;72325;41.910;22.404;2024-03-07T03:24:34;4.22;;;2.80;;
82646;SDS011;72325;41.910;22.404;2024-03-07T03:27:01;5.72;;;2.90;;
82646;SDS011;72325;41.910;22.404;2024-03-07T03:29:27;5.15;;;3.05;;
82646;SDS011;72325;41.910;22.404;2024-03-07T03:31:54;4.47;;;2.83;;
82646;SDS011;72325;41.910;22.404;2024-03-07T03:34:21;4.90;;;3.10;;
82646;SDS011;72325;41.910;22.404;2024-03-07T03:36:47;6.18;;;2.85;;
82646;SDS011;72325;41.910;22.404;2024-03-07T03:39:14;6.20;;;2.83;;
82646;SDS011;72325;41.910;22.404;2024-03-07T03:41:40;5.45;;;3.45;;
82646;SDS011;72325;41.910;22.404;2024-03-07T03:47:10;7.65;;;5.35;;
82646;SDS011;72325;41.910;22.404;2024-03-07T03:49:36;8.52;;;5.22;;
82646;SDS011;72325;41.910;22.404;2024-03-07T03:52:02;8.73;;;5.22;;
82646;SDS011;72325;41.910;22.404;2024-03-07T03:54:29;20.63;;;9.85;;
82646;SDS011;72325;41.910;22.404;2024-03-07T03:56:55;6.18;;;3.75;;
82646;SDS011;72325;41.910;22.404;2024-03-07T04:02:46;8.63;;;4.70;;
82646;SDS011;72325;41.910;22.404;2024-03-07T04:05:13;5.53;;;2.78;;
82646;SDS011;72325;41.910;22.404;2024-03-07T04:07:40;3.25;;;1.73;;
82646;SDS011;72325;41.910;22.404;2024-03-07T04:10:10;1.92;;;1.30;;
82646;SDS011;72325;41.910;22.404;2024-03-07T04:12:37;3.33;;;1.17;;
82646;SDS011;72325;41.910;22.404;2024-03-07T04:15:06;2.78;;;1.27;;
82646;SDS011;72325;41.910;22.404;2024-03-07T04:17:33;4.47;;;2.00;;
82646;SDS011;72325;41.910;22.404;2024-03-07T04:20:00;3.22;;;1.30;;
82646;SDS011;72325;41.910;22.404;2024-03-07T04:22:27;4.85;;;2.28;;
82646;SDS011;72325;41.910;22.404;2024-03-07T04:24:53;2.28;;;1.25;;
82646;SDS011;72325;41.910;22.404;2024-03-07T04:27:20;4.25;;;1.60;;
82646;SDS011;72325;41.910;22.404;2024-03-07T04:29:47;2.40;;;0.98;;
82646;SDS011;72325;41.910;22.404;2024-03-07T04:32:14;3.75;;;1.55;;
82646;SDS011;72325;41.910;22.404;2024-03-07T04:34:40;4.20;;;1.50;;
82646;SDS011;72325;41.910;22.404;2024-03-07T04:37:06;3.38;;;1.50;;
82646;SDS011;72325;41.910;22.404;2024-03-07T04:39:33;4.63;;;1.77;;
82646;SDS011;72325;41.910;22.404;2024-03-07T04:41:59;9.98;;;3.45;;
82646;SDS011;72325;41.910;22.404;2024-03-07T04:47:29;3.65;;;1.38;;
82646;SDS011;72325;41.910;22.404;2024-03-07T04:49:55;4.20;;;2.30;;
82646;SDS011;72325;41.910;22.404;2024-03-07T04:52:22;3.20;;;1.88;;
82646;SDS011;72325;41.910;22.404;2024-03-07T04:54:48;3.67;;;1.65;;
82646;SDS011;72325;41.910;22.404;2024-03-07T04:57:14;3.67;;;1.85;;
82646;SDS011;72325;41.910;22.404;2024-03-07T04:59:40;6.15;;;2.80;;
82646;SDS011;72325;41.910;22.404;2024-03-07T05:02:06;4.65;;;2.20;;
82646;SDS011;72325;41.910;22.404;2024-03-07T05:04:33;5.30;;;3.30;;
82646;SDS011;72325;41.910;22.404;2024-03-07T05:06:59;4.18;;;2.20;;
82646;SDS011;72325;41.910;22.404;2024-03-07T05:09:25;4.13;;;2.67;;
82646;SDS011;72325;41.910;22.404;2024-03-07T05:11:53;4.88;;;2.80;;
82646;SDS011;72325;41.910;22.404;2024-03-07T05:17:23;9.07;;;5.95;;
82646;SDS011;72325;41.910;22.404;2024-03-07T05:19:49;7.78;;;5.28;;
82646;SDS011;72325;41.910;22.404;2024-03-07T05:22:16;9.00;;;5.30;;
82646;SDS011;72325;41.910;22.404;2024-03-07T05:24:43;7.88;;;4.90;;
82646;SDS011;72325;41.910;22.404;2024-03-07T05:27:09;8.38;;;4.90;;
82646;SDS011;72325;41.910;22.404;2024-03-07T05:32:41;7.25;;;4.32;;
82646;SDS011;72325;41.910;22.404;2024-03-07T05:35:08;9.77;;;4.35;;
82646;SDS011;72325;41.910;22.404;2024-03-07T05:37:36;11.30;;;5.22;;
82646;SDS011;72325;41.910;22.404;2024-03-07T05:40:02;17.35;;;10.25;;
82646;SDS011;72325;41.910;22.404;2024-03-07T05:42:29;13.65;;;7.63;;
82646;SDS011;72325;41.910;22.404;2024-03-07T05:44:56;10.27;;;6.10;;
82646;SDS011;72325;41.910;22.404;2024-03-07T05:47:23;13.70;;;8.45;;
82646;SDS011;72325;41.910;22.404;2024-03-07T05:49:49;9.88;;;7.07;;
82646;SDS011;72325;41.910;22.404;2024-03-07T05:52:15;13.05;;;7.93;;
82646;SDS011;72325;41.910;22.404;2024-03-07T05:54:42;12.35;;;9.02;;
82646;SDS011;72325;41.910;22.404;2024-03-07T05:57:09;13.57;;;7.57;;
82646;SDS011;72325;41.910;22.404;2024-03-07T06:02:40;8.45;;;5.60;;
82646;SDS011;72325;41.910;22.404;2024-03-07T06:05:06;10.43;;;6.75;;
82646;SDS011;72325;41.910;22.404;2024-03-07T06:07:40;7.03;;;5.65;;
82646;SDS011;72325;41.910;22.404;2024-03-07T06:10:06;10.70;;;6.50;;
82646;SDS011;72325;41.910;22.404;2024-03-07T06:12:36;7.35;;;4.93;;
82646;SDS011;72325;41.910;22.404;2024-03-07T06:18:44;10.25;;;5.88;;
82646;SDS011;72325;41.910;22.404;2024-03-07T06:21:12;7.63;;;5.45;;
82646;SDS011;72325;41.910;22.404;2024-03-07T06:23:38;9.48;;;6.28;;
82646;SDS011;72325;41.910;22.404;2024-03-07T06:26:04;11.57;;;6.50;;
82646;SDS011;72325;41.910;22.404;2024-03-07T06:28:38;14.55;;;8.70;;
82646;SDS011;72325;41.910;22.404;2024-03-07T06:31:04;11.35;;;7.32;;
82646;SDS011;72325;41.910;22.404;2024-03-07T06:33:33;9.35;;;5.90;;
82646;SDS011;72325;41.910;22.404;2024-03-07T06:35:59;10.45;;;6.88;;
82646;SDS011;72325;41.910;22.404;2024-03-07T06:38:28;7.50;;;4.28;;
82646;SDS011;72325;41.910;22.404;2024-03-07T06:40:55;7.70;;;4.82;;
82646;SDS011;72325;41.910;22.404;2024-03-07T06:43:21;9.63;;;5.85;;
82646;SDS011;72325;41.910;22.404;2024-03-07T06:45:47;12.73;;;7.40;;
82646;SDS011;72325;41.910;22.404;2024-03-07T06:48:15;11.32;;;7.45;;
82646;SDS011;72325;41.910;22.404;2024-03-07T06:50:42;10.02;;;5.90;;
82646;SDS011;72325;41.910;22.404;2024-03-07T06:53:09;8.75;;;5.75;;
82646;SDS011;72325;41.910;22.404;2024-03-07T06:55:35;6.53;;;4.00;;
82646;SDS011;72325;41.910;22.404;2024-03-07T06:58:03;5.80;;;3.42;;
82646;SDS011;72325;41.910;22.404;2024-03-07T07:00:32;6.63;;;4.25;;
82646;SDS011;72325;41.910;22.404;2024-03-07T07:03:01;6.10;;;3.67;;
82646;SDS011;72325;41.910;22.404;2024-03-07T07:05:35;6.25;;;3.92;;
82646;SDS011;72325;41.910;22.404;2024-03-07T07:08:01;4.68;;;2.75;;
82646;SDS011;72325;41.910;22.404;2024-03-07T07:10:27;5.15;;;3.13;;
82646;SDS011;72325;41.910;22.404;2024-03-07T07:12:54;6.68;;;3.92;;
82646;SDS011;72325;41.910;22.404;2024-03-07T07:15:20;5.65;;;4.00;;
82646;SDS011;72325;41.910;22.404;2024-03-07T07:17:47;8.10;;;5.05;;
82646;SDS011;72325;41.910;22.404;2024-03-07T07:20:17;13.10;;;8.88;;
82646;SDS011;72325;41.910;22.404;2024-03-07T07:22:45;9.95;;;5.55;;
82646;SDS011;72325;41.910;22.404;2024-03-07T07:25:11;10.13;;;6.25;;
82646;SDS011;72325;41.910;22.404;2024-03-07T07:27:48;8.32;;;5.38;;
82646;SDS011;72325;41.910;22.404;2024-03-07T07:33:18;6.72;;;4.78;;
82646;SDS011;72325;41.910;22.404;2024-03-07T07:35:44;9.27;;;5.80;;
82646;SDS011;72325;41.910;22.404;2024-03-07T07:38:10;8.35;;;5.47;;
82646;SDS011;72325;41.910;22.404;2024-03-07T07:40:38;6.40;;;4.05;;
82646;SDS011;72325;41.910;22.404;2024-03-07T07:43:05;9.65;;;5.43;;
82646;SDS011;72325;41.910;22.404;2024-03-07T07:48:34;7.35;;;4.15;;
82646;SDS011;72325;41.910;22.404;2024-03-07T07:51:00;8.65;;;5.20;;
82646;SDS011;72325;41.910;22.404;2024-03-07T07:53:26;5.53;;;3.17;;
82646;SDS011;72325;41.910;22.404;2024-03-07T07:55:53;6.82;;;4.20;;
82646;SDS011;72325;41.910;22.404;2024-03-07T07:58:19;6.50;;;4.05;;
82646;SDS011;72325;41.910;22.404;2024-03-07T08:03:48;9.35;;;5.97;;
82646;SDS011;72325;41.910;22.404;2024-03-07T08:06:14;9.20;;;5.47;;
82646;SDS011;72325;41.910;22.404;2024-03-07T08:08:40;13.27;;;7.90;;
82646;SDS011;72325;41.910;22.404;2024-03-07T08:11:07;10.60;;;5.75;;
82646;SDS011;72325;41.910;22.404;2024-03-07T08:13:34;10.93;;;6.30;;
82646;SDS011;72325;41.910;22.404;2024-03-07T08:16:00;13.75;;;6.80;;
82646;SDS011;72325;41.910;22.404;2024-03-07T08:18:26;8.90;;;5.15;;
82646;SDS011;72325;41.910;22.404;2024-03-07T08:20:52;10.80;;;4.80;;
82646;SDS011;72325;41.910;22.404;2024-03-07T08:23:19;7.07;;;4.50;;
82646;SDS011;72325;41.910;22.404;2024-03-07T08:25:45;9.30;;;5.82;;
82646;SDS011;72325;41.910;22.404;2024-03-07T08:28:11;8.48;;;5.00;;
82646;SDS011;72325;41.910;22.404;2024-03-07T08:33:41;4.38;;;2.08;;
82646;SDS011;72325;41.910;22.404;2024-03-07T08:36:07;4.93;;;2.35;;
82646;SDS011;72325;41.910;22.404;2024-03-07T08:38:35;5.18;;;2.30;;
82646;SDS011;72325;41.910;22.404;2024-03-07T08:41:02;4.22;;;2.13;;
82646;SDS011;72325;41.910;22.404;2024-03-07T08:43:28;7.28;;;2.50;;
82646;SDS011;72325;41.910;22.404;2024-03-07T08:48:58;5.22;;;1.95;;
82646;SDS011;72325;41.910;22.404;2024-03-07T08:51:24;2.70;;;1.65;;
82646;SDS011;72325;41.910;22.404;2024-03-07T08:53:51;5.47;;;2.35;;
82646;SDS011;72325;41.910;22.404;2024-03-07T08:56:17;5.85;;;2.20;;
82646;SDS011;72325;41.910;22.404;2024-03-07T08:58:43;4.32;;;1.80;;
82646;SDS011;72325;41.910;22.404;2024-03-07T09:04:13;2.63;;;1.10;;
82646;SDS011;72325;41.910;22.404;2024-03-07T09:06:41;1.70;;;0.90;;
82646;SDS011;72325;41.910;22.404;2024-03-07T09:09:11;3.47;;;1.42;;
82646;SDS011;72325;41.910;22.404;2024-03-07T09:11:39;7.93;;;1.35;;
82646;SDS011;72325;41.910;22.404;2024-03-07T09:14:07;2.70;;;1.00;;
82646;SDS011;72325;41.910;22.404;2024-03-07T09:16:34;2.65;;;1.33;;
82646;SDS011;72325;41.910;22.404;2024-03-07T09:19:01;2.63;;;1.58;;
82646;SDS011;72325;41.910;22.404;2024-03-07T09:21:28;5.20;;;2.58;;
82646;SDS011;72325;41.910;22.404;2024-03-07T09:23:54;3.40;;;1.92;;
82646;SDS011;72325;41.910;22.404;2024-03-07T09:26:20;3.45;;;1.90;;
82646;SDS011;72325;41.910;22.404;2024-03-07T09:28:47;6.13;;;2.83;;
82646;SDS011;72325;41.910;22.404;2024-03-07T09:34:17;4.97;;;3.05;;
82646;SDS011;72325;41.910;22.404;2024-03-07T09:36:44;4.68;;;2.40;;
82646;SDS011;72325;41.910;22.404;2024-03-07T09:39:12;5.70;;;2.05;;
82646;SDS011;72325;41.910;22.404;2024-03-07T09:41:38;5.82;;;1.65;;
82646;SDS011;72325;41.910;22.404;2024-03-07T09:44:05;4.47;;;2.50;;
82646;SDS011;72325;41.910;22.404;2024-03-07T09:49:35;3.58;;;1.40;;
82646;SDS011;72325;41.910;22.404;2024-03-07T09:52:01;3.75;;;1.55;;
82646;SDS011;72325;41.910;22.404;2024-03-07T09:56:57;2.53;;;1.60;;
82646;SDS011;72325;41.910;22.404;2024-03-07T09:59:28;3.70;;;1.60;;
82646;SDS011;72325;41.910;22.404;2024-03-07T10:01:54;4.07;;;1.40;;
82646;SDS011;72325;41.910;22.404;2024-03-07T10:04:31;3.38;;;1.52;;
82646;SDS011;72325;41.910;22.404;2024-03-07T10:07:03;3.30;;;1.80;;
82646;SDS011;72325;41.910;22.404;2024-03-07T10:09:30;4.57;;;2.50;;
82646;SDS011;72325;41.910;22.404;2024-03-07T10:12:01;5.63;;;2.10;;
82646;SDS011;72325;41.910;22.404;2024-03-07T10:14:27;5.00;;;2.95;;
82646;SDS011;72325;41.910;22.404;2024-03-07T10:20:36;2.85;;;1.58;;
82646;SDS011;72325;41.910;22.404;2024-03-07T10:23:04;3.50;;;1.40;;
82646;SDS011;72325;41.910;22.404;2024-03-07T10:25:32;4.95;;;2.08;;
82646;SDS011;72325;41.910;22.404;2024-03-07T10:27:59;4.18;;;1.92;;
82646;SDS011;72325;41.910;22.404;2024-03-07T10:30:26;2.15;;;1.20;;
82646;SDS011;72325;41.910;22.404;2024-03-07T10:32:57;5.88;;;2.20;;
82646;SDS011;72325;41.910;22.404;2024-03-07T10:35:24;2.85;;;1.70;;
82646;SDS011;72325;41.910;22.404;2024-03-07T10:37:51;3.72;;;1.90;;
82646;SDS011;72325;41.910;22.404;2024-03-07T10:40:19;6.50;;;2.70;;
82646;SDS011;72325;41.910;22.404;2024-03-07T10:42:47;2.92;;;1.50;;
82646;SDS011;72325;41.910;22.404;2024-03-07T10:45:20;4.30;;;2.03;;
82646;SDS011;72325;41.910;22.404;2024-03-07T10:47:53;8.23;;;4.15;;
82646;SDS011;72325;41.910;22.404;2024-03-07T10:50:43;6.75;;;2.15;;
82646;SDS011;72325;41.910;22.404;2024-03-07T10:58:29;6.15;;;3.13;;
82646;SDS011;72325;41.910;22.404;2024-03-07T11:00:58;4.13;;;2.17;;
82646;SDS011;72325;41.910;22.404;2024-03-07T11:03:29;3.83;;;1.60;;
82646;SDS011;72325;41.910;22.404;2024-03-07T11:05:59;2.85;;;1.27;;
82646;SDS011;72325;41.910;22.404;2024-03-07T11:08:31;3.63;;;1.60;;
82646;SDS011;72325;41.910;22.404;2024-03-07T11:10:57;5.40;;;1.77;;
82646;SDS011;72325;41.910;22.404;2024-03-07T11:13:23;2.70;;;1.50;;
82646;SDS011;72325;41.910;22.404;2024-03-07T11:15:49;2.70;;;1.63;;
82646;SDS011;72325;41.910;22.404;2024-03-07T11:18:16;4.35;;;2.13;;
82646;SDS011;72325;41.910;22.404;2024-03-07T11:20:42;7.28;;;2.20;;
82646;SDS011;72325;41.910;22.404;2024-03-07T11:30:52;3.70;;;1.40;;
82646;SDS011;72325;41.910;22.404;2024-03-07T11:33:22;6.22;;;2.15;;
82646;SDS011;72325;41.910;22.404;2024-03-07T11:35:52;4.47;;;1.98;;
82646;SDS011;72325;41.910;22.404;2024-03-07T11:38:19;5.53;;;2.50;;
82646;SDS011;72325;41.910;22.404;2024-03-07T11:40:58;3.58;;;1.65;;
82646;SDS011;72325;41.910;22.404;2024-03-07T11:43:27;5.65;;;2.88;;
82646;SDS011;72325;41.910;22.404;2024-03-07T11:45:53;7.15;;;1.55;;
82646;SDS011;72325;41.910;22.404;2024-03-07T11:48:22;4.25;;;1.70;;
82646;SDS011;72325;41.910;22.404;2024-03-07T11:50:49;3.67;;;1.88;;
82646;SDS011;72325;41.910;22.404;2024-03-07T11:53:16;4.90;;;2.00;;
82646;SDS011;72325;41.910;22.404;2024-03-07T11:55:46;3.97;;;1.55;;
82646;SDS011;72325;41.910;22.404;2024-03-07T11:58:19;6.72;;;3.17;;
82646;SDS011;72325;41.910;22.404;2024-03-07T12:00:49;4.07;;;2.05;;
82646;SDS011;72325;41.910;22.404;2024-03-07T12:03:17;3.63;;;1.40;;
82646;SDS011;72325;41.910;22.404;2024-03-07T12:05:46;2.25;;;1.15;;
82646;SDS011;72325;41.910;22.404;2024-03-07T12:08:13;1.40;;;0.80;;
82646;SDS011;72325;41.910;22.404;2024-03-07T12:10:39;4.05;;;1.60;;
82646;SDS011;72325;41.910;22.404;2024-03-07T12:13:09;1.85;;;1.00;;
82646;SDS011;72325;41.910;22.404;2024-03-07T12:15:36;2.83;;;1.20;;
82646;SDS011;72325;41.910;22.404;2024-03-07T12:21:25;2.78;;;1.70;;
82646;SDS011;72325;41.910;22.404;2024-03-07T12:23:52;3.95;;;0.98;;
82646;SDS011;72325;41.910;22.404;2024-03-07T12:26:19;3.10;;;1.55;;
82646;SDS011;72325;41.910;22.404;2024-03-07T12:28:50;3.13;;;1.35;;
82646;SDS011;72325;41.910;22.404;2024-03-07T12:31:18;3.20;;;1.20;;
82646;SDS011;72325;41.910;22.404;2024-03-07T12:33:48;3.10;;;1.00;;
82646;SDS011;72325;41.910;22.404;2024-03-07T12:36:16;5.20;;;1.13;;
82646;SDS011;72325;41.910;22.404;2024-03-07T12:38:42;2.97;;;1.10;;
82646;SDS011;72325;41.910;22.404;2024-03-07T12:41:09;2.72;;;1.25;;
82646;SDS011;72325;41.910;22.404;2024-03-07T12:43:39;7.10;;;3.38;;
82646;SDS011;72325;41.910;22.404;2024-03-07T12:46:11;3.58;;;0.80;;
82646;SDS011;72325;41.910;22.404;2024-03-07T12:48:38;2.70;;;1.13;;
82646;SDS011;72325;41.910;22.404;2024-03-07T12:51:04;3.20;;;1.67;;
82646;SDS011;72325;41.910;22.404;2024-03-07T12:53:31;4.20;;;1.52;;
82646;SDS011;72325;41.910;22.404;2024-03-07T12:56:00;2.47;;;0.60;;
82646;SDS011;72325;41.910;22.404;2024-03-07T12:58:27;5.72;;;3.50;;
82646;SDS011;72325;41.910;22.404;2024-03-07T13:00:55;3.92;;;2.10;;
82646;SDS011;72325;41.910;22.404;2024-03-07T13:06:25;1.20;;;0.60;;
82646;SDS011;72325;41.910;22.404;2024-03-07T13:08:54;2.10;;;0.80;;
82646;SDS011;72325;41.910;22.404;2024-03-07T13:11:23;2.92;;;1.25;;
82646;SDS011;72325;41.910;22.404;2024-03-07T13:13:52;4.45;;;2.17;;
82646;SDS011;72325;41.910;22.404;2024-03-07T13:16:19;4.93;;;2.33;;
82646;SDS011;72325;41.910;22.404;2024-03-07T13:18:45;4.43;;;2.08;;
82646;SDS011;72325;41.910;22.404;2024-03-07T13:21:11;4.25;;;2.22;;
82646;SDS011;72325;41.910;22.404;2024-03-07T13:23:43;6.10;;;3.38;;
82646;SDS011;72325;41.910;22.404;2024-03-07T13:26:09;5.35;;;2.35;;
82646;SDS011;72325;41.910;22.404;2024-03-07T13:28:42;8.27;;;3.42;;
82646;SDS011;72325;41.910;22.404;2024-03-07T13:31:09;4.75;;;2.33;;
82646;SDS011;72325;41.910;22.404;2024-03-07T13:37:12;9.02;;;4.72;;
82646;SDS011;72325;41.910;22.404;2024-03-07T13:39:43;3.53;;;1.30;;
82646;SDS011;72325;41.910;22.404;2024-03-07T13:42:12;5.65;;;2.10;;
82646;SDS011;72325;41.910;22.404;2024-03-07T13:44:38;2.70;;;1.20;;
82646;SDS011;72325;41.910;22.404;2024-03-07T13:47:04;2.92;;;1.15;;
82646;SDS011;72325;41.910;22.404;2024-03-07T13:49:32;13.25;;;5.32;;
82646;SDS011;72325;41.910;22.404;2024-03-07T13:51:59;4.13;;;1.38;;
82646;SDS011;72325;41.910;22.404;2024-03-07T13:54:35;3.55;;;1.65;;
82646;SDS011;72325;41.910;22.404;2024-03-07T13:57:28;4.55;;;2.40;;
82646;SDS011;72325;41.910;22.404;2024-03-07T14:10:51;3.50;;;1.67;;
82646;SDS011;72325;41.910;22.404;2024-03-07T14:21:27;6.03;;;3.60;;
82646;SDS011;72325;41.910;22.404;2024-03-07T14:29:19;4.28;;;1.20;;
82646;SDS011;72325;41.910;22.404;2024-03-07T14:35:06;2.63;;;1.60;;
82646;SDS011;72325;41.910;22.404;2024-03-07T14:37:54;4.18;;;1.90;;
82646;SDS011;72325;41.910;22.404;2024-03-07T14:40:22;3.22;;;1.65;;
82646;SDS011;72325;41.910;22.404;2024-03-07T14:42:51;3.90;;;1.83;;
82646;SDS011;72325;41.910;22.404;2024-03-07T14:45:31;3.78;;;1.77;;
82646;SDS011;72325;41.910;22.404;2024-03-07T14:51:01;3.60;;;2.53;;
82646;SDS011;72325;41.910;22.404;2024-03-07T14:53:28;3.03;;;1.75;;
82646;SDS011;72325;41.910;22.404;2024-03-07T14:55:54;2.58;;;1.80;;
82646;SDS011;72325;41.910;22.404;2024-03-07T14:58:24;6.63;;;3.20;;
82646;SDS011;72325;41.910;22.404;2024-03-07T15:00:51;4.75;;;1.52;;
82646;SDS011;72325;41.910;22.404;2024-03-07T15:06:23;3.97;;;1.95;;
82646;SDS011;72325;41.910;22.404;2024-03-07T15:08:49;6.43;;;3.45;;
82646;SDS011;72325;41.910;22.404;2024-03-07T15:13:53;7.50;;;2.15;;
82646;SDS011;72325;41.910;22.404;2024-03-07T15:16:20;5.90;;;4.20;;
82646;SDS011;72325;41.910;22.404;2024-03-07T15:21:52;3.33;;;2.03;;
82646;SDS011;72325;41.910;22.404;2024-03-07T15:24:18;6.65;;;3.42;;
82646;SDS011;72325;41.910;22.404;2024-03-07T15:26:46;4.43;;;2.53;;
82646;SDS011;72325;41.910;22.404;2024-03-07T15:29:15;7.28;;;4.30;;
82646;SDS011;72325;41.910;22.404;2024-03-07T15:31:47;6.45;;;3.05;;
82646;SDS011;72325;41.910;22.404;2024-03-07T15:37:44;3.17;;;1.48;;
82646;SDS011;72325;41.910;22.404;2024-03-07T15:40:11;5.53;;;3.03;;
82646;SDS011;72325;41.910;22.404;2024-03-07T15:42:39;5.63;;;3.70;;
82646;SDS011;72325;41.910;22.404;2024-03-07T15:45:06;10.68;;;5.72;;
82646;SDS011;72325;41.910;22.404;2024-03-07T15:47:41;6.13;;;2.40;;
82646;SDS011;72325;41.910;22.404;2024-03-07T15:50:08;8.65;;;5.43;;
82646;SDS011;72325;41.910;22.404;2024-03-07T15:52:37;8.70;;;5.93;;
82646;SDS011;72325;41.910;22.404;2024-03-07T15:55:05;10.65;;;4.93;;
82646;SDS011;72325;41.910;22.404;2024-03-07T15:57:32;12.85;;;5.78;;
82646;SDS011;72325;41.910;22.404;2024-03-07T15:59:59;15.40;;;6.85;;
82646;SDS011;72325;41.910;22.404;2024-03-07T16:02:28;23.35;;;11.32;;
82646;SDS011;72325;41.910;22.404;2024-03-07T16:04:55;17.70;;;9.13;;
82646;SDS011;72325;41.910;22.404;2024-03-07T16:07:22;29.63;;;14.85;;
82646;SDS011;72325;41.910;22.404;2024-03-07T16:09:48;30.77;;;16.50;;
82646;SDS011;72325;41.910;22.404;2024-03-07T16:12:14;45.08;;;22.38;;
82646;SDS011;72325;41.910;22.404;2024-03-07T16:14:40;34.10;;;20.13;;
82646;SDS011;72325;41.910;22.404;2024-03-07T16:17:06;32.95;;;17.63;;
82646;SDS011;72325;41.910;22.404;2024-03-07T16:19:32;32.00;;;18.77;;
82646;SDS011;72325;41.910;22.404;2024-03-07T16:21:58;31.65;;;16.80;;
82646;SDS011;72325;41.910;22.404;2024-03-07T16:24:24;22.83;;;15.00;;
82646;SDS011;72325;41.910;22.404;2024-03-07T16:26:51;24.38;;;15.40;;
82646;SDS011;72325;41.910;22.404;2024-03-07T16:29:17;26.63;;;16.45;;
82646;SDS011;72325;41.910;22.404;2024-03-07T16:31:43;29.63;;;19.33;;
82646;SDS011;72325;41.910;22.404;2024-03-07T16:37:13;19.70;;;11.90;;
82646;SDS011;72325;41.910;22.404;2024-03-07T16:39:39;8.55;;;6.10;;
82646;SDS011;72325;41.910;22.404;2024-03-07T16:42:08;4.88;;;3.40;;
82646;SDS011;72325;41.910;22.404;2024-03-07T16:44:39;9.95;;;4.78;;
82646;SDS011;72325;41.910;22.404;2024-03-07T16:47:05;5.72;;;3.25;;
82646;SDS011;72325;41.910;22.404;2024-03-07T16:49:37;8.45;;;4.65;;
82646;SDS011;72325;41.910;22.404;2024-03-07T16:52:04;5.72;;;3.13;;
82646;SDS011;72325;41.910;22.404;2024-03-07T16:54:32;8.68;;;4.95;;
82646;SDS011;72325;41.910;22.404;2024-03-07T16:57:01;8.68;;;4.85;;
82646;SDS011;72325;41.910;22.404;2024-03-07T16:59:27;11.40;;;7.70;;